Clipper Saga — LAFY6 — position and weather

sailwx.info

Track history (hours):
 
Tides and Currents Weather Stations Pressure Air Temp Water Temp Dewpoint Dewpoint Depression Visibility Wind Speed Wind Dir Waves Ship Positions

Clipper Saga

Last reported at 2015-May-30 20:11 UTC. Time now 2015-May-30 20:40 UTC.
Position N 57°40' E 010°40'.

Length 89 m; draft 5.9 m.

Type: Ship (hazmat cat C). MMSI: 246657008.

Date/timePositionNaut miles runAvg speedWind from/ knotsBaromVisibWave heightAir tempDewpointWater temp
2015-May-30 20:11N 57°40' E 010°40'0 0.0
2015-May-30 19:23N 57°40' E 010°40'0 0.0
2015-May-30 18:32N 57°40' E 010°40'0 0.0
2015-May-30 17:32N 57°40' E 010°40'0 0.0
2015-May-30 15:26N 57°40' E 010°40'0 0.0
2015-May-30 14:32N 57°40' E 010°40'0 0.0
2015-May-30 00:23N 57°40' E 010°40'0 0.0
2015-May-29 19:17N 57°40' E 010°40'5 6.9
2015-May-29 18:33N 57°44' E 010°45'1110.7
2015-May-29 17:34N 57°55' E 010°41'1111.5
2015-May-29 16:33N 58°06' E 010°37'10 9.5
2015-May-29 15:34N 58°15' E 010°34'1110.5
2015-May-29 14:33N 58°26' E 010°31'1210.7
2015-May-29 13:24N 58°38' E 010°28'910.3
2015-May-29 12:33N 58°46' E 010°25'10 9.7
2015-May-29 11:34N 58°55' E 010°34'9 9.0
2015-May-29 10:33N 59°02' E 010°45'7 7.3
2015-May-29 09:34N 59°04' E 010°58'10 9.9
2015-May-29 08:33N 59°14' E 010°60'4 0.1
2015-May-27 22:27N 59°16' E 011°06'0 0.0
2015-May-27 20:30N 59°16' E 011°06'0 0.0
2015-May-27 16:33N 59°16' E 011°06'4 4.1
2015-May-27 15:33N 59°14' E 010°59'8 7.6
2015-May-27 14:33N 59°06' E 010°58'6 6.4
2015-May-27 13:33N 59°02' E 010°50'7 7.0
2015-May-27 12:33N 58°58' E 010°38'9 8.9
2015-May-27 11:33N 58°51' E 010°27'9 9.2
2015-May-27 10:33N 58°44' E 010°17'1110.8
2015-May-27 09:33N 58°35' E 010°04'21910.7
2015-May-26 13:04N 55°30' E 006°29'8110.6
2015-May-26 05:28N 54°19' E 005°21'1010.5
2015-May-26 04:33N 54°11' E 005°13'1010.5
2015-May-26 03:33N 54°01' E 005°05'1110.7
2015-May-26 02:33N 53°51' E 004°59'1511.2
2015-May-26 01:14N 53°37' E 004°51'811.7
2015-May-26 00:33N 53°30' E 004°46'3712.2
2015-May-25 21:33N 52°57' E 004°18'1212.4
2015-May-25 20:33N 52°46' E 004°09'1212.1
2015-May-25 19:33N 52°37' E 003°56'1311.9
2015-May-25 18:26N 52°24' E 003°53'1011.2
2015-May-25 17:33N 52°14' E 003°53'1110.7
2015-May-25 16:33N 52°03' E 003°55'1010.1
2015-May-25 15:33N 51°57' E 004°09'4 3.9
2015-May-25 14:33N 51°55' E 004°13'0 0.0
2015-May-25 13:08N 51°55' E 004°13'0 0.0
2015-May-25 10:32N 51°55' E 004°13'0 0.0
2015-May-25 09:26N 51°55' E 004°13'0 0.0
2015-May-25 08:29N 51°55' E 004°13'0 0.0
2015-May-25 07:08N 51°55' E 004°13'0 0.0
2015-May-25 06:26N 51°55' E 004°13'0 0.0
2015-May-25 05:32N 51°55' E 004°13'0 0.0
2015-May-25 04:26N 51°55' E 004°13'0 0.0
2015-May-25 03:32N 51°55' E 004°13'0 0.0
2015-May-25 02:08N 51°55' E 004°13'0 0.0
2015-May-25 01:32N 51°55' E 004°13'0 0.0
2015-May-25 00:26N 51°55' E 004°13'0 0.0
2015-May-24 23:32N 51°55' E 004°13'0 0.0
2015-May-24 22:32N 51°55' E 004°13'0 0.0
2015-May-24 21:29N 51°55' E 004°13'0 0.0
2015-May-24 20:14N 51°55' E 004°13'0 0.0
2015-May-24 19:29N 51°55' E 004°13'0 0.0
2015-May-24 18:29N 51°55' E 004°13'0 0.0
2015-May-24 17:29N 51°55' E 004°13'0 0.0
2015-May-24 16:14N 51°55' E 004°13'0 0.0
2015-May-24 14:08N 51°55' E 004°13'0 0.0
2015-May-24 13:08N 51°55' E 004°13'0 0.0
2015-May-24 12:29N 51°55' E 004°13'0 0.0
2015-May-24 11:29N 51°55' E 004°13'0 0.0
2015-May-24 10:26N 51°55' E 004°13'0 0.0
2015-May-24 09:33N 51°55' E 004°13'8 8.2
2015-May-24 08:33N 51°59' E 004°02'1110.8
2015-May-24 07:33N 52°04' E 003°46'1010.3
2015-May-24 06:33N 52°15' E 003°46'1110.4
2015-May-24 05:26N 52°26' E 003°50'8 9.3
2015-May-24 04:33N 52°34' E 003°52'1010.3
2015-May-24 03:33N 52°44' E 003°56'1110.4
2015-May-24 02:32N 52°55' E 003°59'10 9.7
2015-May-24 01:31N 53°02' E 004°09'1010.3
2015-May-24 00:33N 53°09' E 004°21'1410.1
2015-May-23 23:11N 53°22' E 004°31'810.2
2015-May-23 22:22N 53°29' E 004°36'9 9.9
2015-May-23 21:26N 53°38' E 004°41'9 9.9
2015-May-23 20:29N 53°47' E 004°45'11 9.7
2015-May-23 19:19N 53°58' E 004°51'7 9.7
2015-May-23 18:33N 54°05' E 004°52'  
Track history (hours):
 
Tides and Currents Weather Stations Pressure Air Temp Water Temp Dewpoint Dewpoint Depression Visibility Wind Speed Wind Dir Waves Ship Positions

Clipper Saga

Last reported at 2015-May-30 20:11 UTC. Time now 2015-May-30 20:40 UTC.
Position N 57°40' E 010°40'.

Length 89 m; draft 5.9 m.

Type: Ship (hazmat cat C). MMSI: 246657008.

Date/timePositionNaut miles runAvg speedWind from/ knotsBaromVisibWave heightAir tempDewpointWater temp
2015-May-30 20:11N 57°40' E 010°40'0 0.0
2015-May-30 19:23N 57°40' E 010°40'0 0.0
2015-May-30 18:32N 57°40' E 010°40'0 0.0
2015-May-30 17:32N 57°40' E 010°40'0 0.0
2015-May-30 15:26N 57°40' E 010°40'0 0.0
2015-May-30 14:32N 57°40' E 010°40'0 0.0
2015-May-30 00:23N 57°40' E 010°40'0 0.0
2015-May-29 19:17N 57°40' E 010°40'5 6.9
2015-May-29 18:33N 57°44' E 010°45'1110.7
2015-May-29 17:34N 57°55' E 010°41'1111.5
2015-May-29 16:33N 58°06' E 010°37'10 9.5
2015-May-29 15:34N 58°15' E 010°34'1110.5
2015-May-29 14:33N 58°26' E 010°31'1210.7
2015-May-29 13:24N 58°38' E 010°28'910.3
2015-May-29 12:33N 58°46' E 010°25'10 9.7
2015-May-29 11:34N 58°55' E 010°34'9 9.0
2015-May-29 10:33N 59°02' E 010°45'7 7.3
2015-May-29 09:34N 59°04' E 010°58'10 9.9
2015-May-29 08:33N 59°14' E 010°60'4 0.1
2015-May-27 22:27N 59°16' E 011°06'0 0.0
2015-May-27 20:30N 59°16' E 011°06'0 0.0
2015-May-27 16:33N 59°16' E 011°06'4 4.1
2015-May-27 15:33N 59°14' E 010°59'8 7.6
2015-May-27 14:33N 59°06' E 010°58'6 6.4
2015-May-27 13:33N 59°02' E 010°50'7 7.0
2015-May-27 12:33N 58°58' E 010°38'9 8.9
2015-May-27 11:33N 58°51' E 010°27'9 9.2
2015-May-27 10:33N 58°44' E 010°17'1110.8
2015-May-27 09:33N 58°35' E 010°04'21910.7
2015-May-26 13:04N 55°30' E 006°29'8110.6
2015-May-26 05:28N 54°19' E 005°21'1010.5
2015-May-26 04:33N 54°11' E 005°13'1010.5
2015-May-26 03:33N 54°01' E 005°05'1110.7
2015-May-26 02:33N 53°51' E 004°59'1511.2
2015-May-26 01:14N 53°37' E 004°51'811.7
2015-May-26 00:33N 53°30' E 004°46'3712.2
2015-May-25 21:33N 52°57' E 004°18'1212.4
2015-May-25 20:33N 52°46' E 004°09'1212.1
2015-May-25 19:33N 52°37' E 003°56'1311.9
2015-May-25 18:26N 52°24' E 003°53'1011.2
2015-May-25 17:33N 52°14' E 003°53'1110.7
2015-May-25 16:33N 52°03' E 003°55'1010.1
2015-May-25 15:33N 51°57' E 004°09'4 3.9
2015-May-25 14:33N 51°55' E 004°13'0 0.0
2015-May-25 13:08N 51°55' E 004°13'0 0.0
2015-May-25 10:32N 51°55' E 004°13'0 0.0
2015-May-25 09:26N 51°55' E 004°13'0 0.0
2015-May-25 08:29N 51°55' E 004°13'0 0.0
2015-May-25 07:08N 51°55' E 004°13'0 0.0
2015-May-25 06:26N 51°55' E 004°13'0 0.0
2015-May-25 05:32N 51°55' E 004°13'0 0.0
2015-May-25 04:26N 51°55' E 004°13'0 0.0
2015-May-25 03:32N 51°55' E 004°13'0 0.0
2015-May-25 02:08N 51°55' E 004°13'0 0.0
2015-May-25 01:32N 51°55' E 004°13'0 0.0
2015-May-25 00:26N 51°55' E 004°13'0 0.0
2015-May-24 23:32N 51°55' E 004°13'0 0.0
2015-May-24 22:32N 51°55' E 004°13'0 0.0
2015-May-24 21:29N 51°55' E 004°13'0 0.0
2015-May-24 20:14N 51°55' E 004°13'0 0.0
2015-May-24 19:29N 51°55' E 004°13'0 0.0
2015-May-24 18:29N 51°55' E 004°13'0 0.0
2015-May-24 17:29N 51°55' E 004°13'0 0.0
2015-May-24 16:14N 51°55' E 004°13'0 0.0
2015-May-24 14:08N 51°55' E 004°13'0 0.0
2015-May-24 13:08N 51°55' E 004°13'0 0.0
2015-May-24 12:29N 51°55' E 004°13'0 0.0
2015-May-24 11:29N 51°55' E 004°13'0 0.0
2015-May-24 10:26N 51°55' E 004°13'0 0.0
2015-May-24 09:33N 51°55' E 004°13'8 8.2
2015-May-24 08:33N 51°59' E 004°02'1110.8
2015-May-24 07:33N 52°04' E 003°46'1010.3
2015-May-24 06:33N 52°15' E 003°46'1110.4
2015-May-24 05:26N 52°26' E 003°50'8 9.3
2015-May-24 04:33N 52°34' E 003°52'1010.3
2015-May-24 03:33N 52°44' E 003°56'1110.4
2015-May-24 02:32N 52°55' E 003°59'10 9.7
2015-May-24 01:31N 53°02' E 004°09'1010.3
2015-May-24 00:33N 53°09' E 004°21'1410.1
2015-May-23 23:11N 53°22' E 004°31'810.2
2015-May-23 22:22N 53°29' E 004°36'9 9.9
2015-May-23 21:26N 53°38' E 004°41'9 9.9
2015-May-23 20:29N 53°47' E 004°45'11 9.7
2015-May-23 19:19N 53°58' E 004°51'7 9.7
2015-May-23 18:33N 54°05' E 004°52'  

Dump ship's entire track history